Time;durP1;ratioP1;P1;durP2;ratioP2;P2;SDS_P1;SDS_P2;PMS_P1;PMS_P2;Temp;Humidity;BMP_temperature;BMP_pressure;BME280_temperature;BME280_humidity;BME280_pressure;Samples;Min_cycle;Max_cycle;Signal;HPM_P1;HPM_P2
2022/02/15 07:29:50;;;;;;;;;5.00;4.25;;;;;16.62;56.65;101364.81;5053308;27;45905;-86
2022/02/15 07:32:18;;;;;;;;;2.75;2.75;;;;;16.76;56.95;101362.03;5042223;28;46974;-86
2022/02/15 07:34:44;;;;;;;;;6.25;6.25;;;;;16.97;56.81;101369.53;5037631;28;45516;-90
2022/02/15 07:37:10;;;;;;;;;5.25;3.25;;;;;17.18;56.47;101359.13;5041387;28;45560;-91
2022/02/15 07:39:35;;;;;;;;;7.50;3.75;;;;;17.47;55.80;101369.56;5037104;28;45636;-83
2022/02/15 07:42:00;;;;;;;;;4.50;3.00;;;;;17.74;55.32;101352.34;5027903;28;45526;-89
2022/02/15 07:44:26;;;;;;;;;3.00;2.00;;;;;18.01;55.30;101356.63;5037019;28;45584;-87
2022/02/15 07:46:51;;;;;;;;;6.00;3.00;;;;;18.32;54.72;101369.56;5047591;28;45566;-83
2022/02/15 07:49:16;;;;;;;;;5.75;2.50;;;;;18.61;54.36;101376.31;5041989;28;54526;-85
2022/02/15 07:51:42;;;;;;;;;1.75;1.25;;;;;18.87;53.92;101378.78;5040374;28;45475;-84
2022/02/15 07:54:07;;;;;;;;;3.75;2.75;;;;;19.12;53.41;101375.03;5045470;28;45343;-86
2022/02/15 07:56:33;;;;;;;;;4.67;3.00;;;;;19.38;52.96;101384.66;5043614;28;45549;-82
2022/02/15 07:58:59;;;;;;;;;6.33;2.00;;;;;19.54;52.46;101368.94;5048193;28;45501;-83
2022/02/15 08:01:24;;;;;;;;;7.67;4.00;;;;;19.78;52.11;101373.28;5049251;28;45451;-84
2022/02/15 08:03:52;;;;;;;;;5.00;3.00;;;;;19.95;51.62;101373.72;5048308;28;45739;-83
2022/02/15 08:06:17;;;;;;;;;2.33;2.00;;;;;20.14;51.51;101387.38;5046151;28;45600;-84
2022/02/15 08:08:43;;;;;;;;;4.67;3.00;;;;;20.25;50.74;101386.47;5038969;28;47113;-74
2022/02/15 08:11:08;;;;;;;;;4.00;2.33;;;;;20.44;50.76;101389.44;5045930;28;48379;-75
2022/02/15 08:13:34;;;;;;;;;4.00;2.00;;;;;20.58;50.75;101391.78;5049434;28;45555;-76
2022/02/15 08:16:01;;;;;;;;;2.67;1.67;;;;;20.74;50.09;101395.84;5047543;28;45420;-86
2022/02/15 08:18:27;;;;;;;;;9.67;5.33;;;;;20.87;49.65;101399.22;5046906;28;46656;-75
2022/02/15 08:20:52;;;;;;;;;12.67;8.67;;;;;21.00;49.49;101406.19;5031526;28;45570;-75
2022/02/15 08:23:17;;;;;;;;;7.00;7.00;;;;;21.11;49.52;101407.97;5039478;28;45795;-75
2022/02/15 08:25:43;;;;;;;;;5.33;5.00;;;;;21.21;49.10;101406.16;5045938;28;45848;-74
2022/02/15 08:28:10;;;;;;;;;7.00;6.67;;;;;21.33;48.95;101412.28;5040793;28;46466;-74
2022/02/15 08:30:35;;;;;;;;;6.67;5.67;;;;;21.41;49.43;101409.75;5045398;28;45452;-74
2022/02/15 08:33:01;;;;;;;;;8.33;6.00;;;;;21.52;49.24;101426.84;5038658;28;45653;-75
2022/02/15 08:35:26;;;;;;;;;5.67;5.67;;;;;21.56;49.33;101414.78;5040926;28;45619;-75
2022/02/15 08:37:51;;;;;;;;;8.00;5.33;;;;;21.64;49.15;101422.19;5045907;28;47256;-75
2022/02/15 08:40:18;;;;;;;;;7.33;6.00;;;;;21.71;48.45;101428.75;5034210;28;45487;-75
2022/02/15 08:42:44;;;;;;;;;7.00;6.00;;;;;21.77;49.06;101427.34;5030137;28;45543;-74
2022/02/15 08:45:10;;;;;;;;;7.67;4.67;;;;;21.85;48.62;101436.47;5033014;28;45392;-75
2022/02/15 08:47:36;;;;;;;;;7.33;5.00;;;;;21.90;48.14;101436.03;5028485;28;46915;-75
2022/02/15 08:50:04;;;;;;;;;6.33;5.00;;;;;21.95;48.50;101439.16;5030549;28;46263;-75
2022/02/15 08:52:30;;;;;;;;;6.33;5.00;;;;;21.98;48.47;101433.50;5031832;28;45554;-74
2022/02/15 08:54:55;;;;;;;;;6.67;3.67;;;;;22.03;47.96;101437.63;5025247;28;45512;-74
2022/02/15 08:57:22;;;;;;;;;4.00;4.00;;;;;22.07;48.01;101441.75;5033632;28;46565;-75
2022/02/15 08:59:53;;;;;;;;;4.33;3.67;;;;;22.10;47.98;101439.63;5030721;28;46003;-75
2022/02/15 09:02:21;;;;;;;;;8.00;5.00;;;;;22.14;47.87;101428.53;5023153;28;45410;-74
2022/02/15 09:04:47;;;;;;;;;6.00;6.00;;;;;22.14;47.58;101429.38;5032641;28;45459;-75
2022/02/15 09:07:12;;;;;;;;;4.00;4.00;;;;;22.20;47.75;101425.25;5037938;28;45529;-74
2022/02/15 09:09:38;;;;;;;;;4.00;4.00;;;;;22.25;47.51;101423.81;5035774;28;45714;-75
2022/02/15 09:12:05;;;;;;;;;3.67;3.00;;;;;22.27;48.21;101418.25;5023897;28;45441;-75
2022/02/15 09:14:30;;;;;;;;;5.00;3.67;;;;;22.32;47.79;101417.84;5026594;28;45419;-75
2022/02/15 09:16:57;;;;;;;;;3.67;3.67;;;;;22.33;48.09;101406.88;5027054;28;46162;-75
2022/02/15 09:19:22;;;;;;;;;4.00;3.00;;;;;22.36;48.13;101392.22;5030598;28;45585;-75
2022/02/15 09:21:50;;;;;;;;;6.00;6.00;;;;;22.38;47.59;101395.63;5017834;28;45405;-76
2022/02/15 09:24:16;;;;;;;;;4.00;4.00;;;;;22.41;47.46;101394.47;5027612;28;47763;-74
2022/02/15 09:26:41;;;;;;;;;7.00;3.67;;;;;22.44;47.47;101400.44;5043603;28;47462;-74
2022/02/15 09:29:07;;;;;;;;;3.00;3.00;;;;;22.50;47.51;101407.13;5021929;28;45676;-75
2022/02/15 09:31:33;;;;;;;;;4.67;3.67;;;;;22.52;47.32;101413.22;5029801;28;45611;-75
2022/02/15 09:33:58;;;;;;;;;4.00;4.00;;;;;22.56;47.75;101417.38;5038672;28;45471;-75
2022/02/15 09:36:26;;;;;;;;;5.00;4.33;;;;;22.60;47.07;101428.78;5021581;28;46275;-75
2022/02/15 09:38:51;;;;;;;;;6.67;5.00;;;;;22.56;47.48;101420.09;5019964;28;45654;-77
2022/02/15 09:41:18;;;;;;;;;13.67;10.33;;;;;22.63;46.92;101429.34;5017201;28;45432;-77
2022/02/15 09:43:44;;;;;;;;;16.67;11.67;;;;;22.66;47.44;101432.75;5030965;28;45502;-77
2022/02/15 09:46:13;;;;;;;;;14.67;12.67;;;;;22.69;47.07;101435.16;5014948;28;46653;-76
2022/02/15 09:48:40;;;;;;;;;18.67;13.33;;;;;22.70;46.71;101428.75;5033893;28;45546;-77
2022/02/15 09:51:06;;;;;;;;;16.67;15.00;;;;;22.70;46.70;101429.63;5025578;28;45637;-80
2022/02/15 09:53:32;;;;;;;;;19.33;14.00;;;;;22.73;46.54;101432.00;5030203;28;45369;-80
2022/02/15 09:55:57;;;;;;;;;17.67;13.67;;;;;22.71;46.31;101427.75;5028115;28;46662;-79
2022/02/15 09:58:23;;;;;;;;;16.33;14.00;;;;;22.71;46.38;101427.75;5023227;28;54650;-79
2022/02/15 10:00:49;;;;;;;;;13.00;11.67;;;;;22.76;46.65;101422.75;5032778;28;45668;-77
2022/02/15 10:03:15;;;;;;;;;17.33;14.67;;;;;22.77;46.83;101417.19;5033556;28;45482;-77
2022/02/15 10:05:46;;;;;;;;;14.00;14.00;;;;;22.77;46.61;101416.34;5035428;28;47521;-78
2022/02/15 10:08:11;;;;;;;;;15.33;13.67;;;;;22.82;46.49;101421.31;5028728;28;45505;-79
2022/02/15 10:10:39;;;;;;;;;12.67;12.67;;;;;22.85;46.37;101412.91;5036624;28;45747;-78
2022/02/15 10:13:09;;;;;;;;;14.00;14.00;;;;;22.85;46.30;101418.31;5047780;28;45603;-78
2022/02/15 10:15:40;;;;;;;;;13.67;13.33;;;;;22.91;46.33;101433.97;5032618;28;45424;-77
2022/02/15 10:18:07;;;;;;;;;16.67;12.00;;;;;22.90;46.57;101432.25;5033426;28;45924;-74
2022/02/15 10:20:34;;;;;;;;;24.67;18.33;;;;;22.90;46.45;101437.69;5030802;28;45480;-86
2022/02/15 11:58:44;;;;;;;;;78.75;56.00;;;;;17.95;51.06;101373.22;5064567;27;47149;-79
2022/02/15 12:01:26;;;;;;;;;81.00;56.75;;;;;18.08;51.20;101377.66;5064684;27;45527;-75
2022/02/15 12:03:53;;;;;;;;;82.75;58.75;;;;;18.25;51.60;101363.81;5062695;28;47977;-75
2022/02/15 12:06:20;;;;;;;;;76.25;55.75;;;;;18.51;51.30;101365.47;5069775;27;45508;-75
2022/02/15 12:08:55;;;;;;;;;77.00;55.00;;;;;18.76;51.11;101356.28;5058648;28;45955;-77
2022/02/15 12:11:44;;;;;;;;;80.50;62.50;;;;;19.06;51.18;101348.63;5075219;27;46578;-76
2022/02/15 12:14:15;;;;;;;;;80.00;53.75;;;;;19.34;50.75;101343.69;5056826;28;45308;-76
2022/02/15 12:16:51;;;;;;;;;74.25;53.75;;;;;19.64;50.27;101341.25;5078938;27;45406;-75
2022/02/15 12:19:19;;;;;;;;;77.50;55.25;;;;;19.92;50.30;101336.25;5062412;27;46809;-78
2022/02/15 12:21:45;;;;;;;;;61.25;42.00;;;;;20.14;46.77;101327.22;5084397;27;45360;-72
2022/02/15 12:24:10;;;;;;;;;20.50;15.50;;;;;20.22;44.78;101323.88;5063479;27;45561;-74
2022/02/15 12:26:41;;;;;;;;;15.00;9.00;;;;;20.23;43.69;101315.66;5062258;27;45582;-74
2022/02/15 12:29:08;;;;;;;;;8.33;4.33;;;;;20.20;43.05;101315.94;5067600;28;46746;-74
2022/02/15 12:31:34;;;;;;;;;3.67;2.00;;;;;20.13;42.58;101326.38;5061955;27;45498;-74
2022/02/15 12:34:01;;;;;;;;;2.00;2.00;;;;;20.06;42.06;101322.50;5066999;27;45704;-75
2022/02/15 12:36:27;;;;;;;;;3.67;3.33;;;;;19.97;41.98;101320.53;5063970;28;45432;-82
2022/02/15 12:38:53;;;;;;;;;26.50;18.75;;;;;20.03;43.17;101314.69;5063107;27;45453;-77
2022/02/15 12:41:20;;;;;;;;;34.25;23.00;;;;;20.13;43.64;101304.81;5067052;27;52338;-77
2022/02/15 12:43:47;;;;;;;;;40.25;28.25;;;;;20.25;43.37;101296.66;5071526;27;45541;-79
2022/02/15 12:46:14;;;;;;;;;34.75;26.75;;;;;20.40;43.92;101310.66;5069976;27;45434;-79
2022/02/15 12:48:41;;;;;;;;;36.25;24.50;;;;;20.53;43.76;101303.16;5058827;27;47518;-78
2022/02/15 12:51:07;;;;;;;;;33.75;23.00;;;;;20.69;44.16;101304.53;5068863;27;45461;-80
2022/02/15 12:53:33;;;;;;;;;33.00;26.50;;;;;20.85;43.69;101305.88;5062014;27;45652;-80
2022/02/15 12:56:05;;;;;;;;;29.25;22.50;;;;;20.95;44.17;101295.13;5068630;27;45477;-81
2022/02/15 12:58:32;;;;;;;;;30.50;22.75;;;;;21.12;43.69;101309.78;5068259;27;46515;-81
2022/02/15 13:01:03;;;;;;;;;32.75;21.25;;;;;21.21;43.91;101306.25;5063358;27;45345;-81
2022/02/15 13:03:33;;;;;;;;;28.00;19.75;;;;;21.32;43.80;101295.34;5063331;27;45385;-79
2022/02/15 13:06:09;;;;;;;;;30.25;23.25;;;;;21.42;43.50;101286.41;5063596;27;45807;-79
2022/02/15 13:08:45;;;;;;;;;28.50;22.00;;;;;21.53;44.10;101288.09;5060532;27;45477;-80
2022/02/15 13:11:12;;;;;;;;;25.75;23.25;;;;;21.63;43.87;101293.50;5054188;28;45471;-78
2022/02/15 13:13:39;;;;;;;;;23.50;21.25;;;;;21.71;43.76;101288.25;5058929;28;45402;-78
2022/02/15 13:16:05;;;;;;;;;33.50;24.25;;;;;21.76;44.33;101282.44;5052563;28;45698;-80
2022/02/15 13:19:00;;;;;;;;;22.75;20.50;;;;;21.87;44.22;101286.84;5063320;28;45504;-84
2022/02/15 13:21:30;;;;;;;;;31.75;23.25;;;;;21.93;43.67;101299.78;5045663;28;45441;-82
2022/02/15 13:23:58;;;;;;;;;28.25;20.50;;;;;21.98;44.26;101294.78;5055826;27;45856;-79
2022/02/15 13:26:38;;;;;;;;;27.00;21.00;;;;;22.03;43.68;101288.97;5051125;28;45454;-81
2022/02/15 13:29:06;;;;;;;;;26.75;18.25;;;;;22.07;44.34;101277.69;5053789;28;46414;-81
2022/02/15 13:31:45;;;;;;;;;36.25;24.00;;;;;22.10;43.70;101273.84;5037574;28;45448;-80
2022/02/15 13:34:11;;;;;;;;;30.75;22.50;;;;;22.14;44.42;101277.13;5053975;28;45479;-78
2022/02/15 13:36:37;;;;;;;;;35.50;25.25;;;;;22.15;44.15;101276.97;5060215;28;45618;-74
2022/02/15 13:39:04;;;;;;;;;31.50;24.50;;;;;22.20;44.24;101271.97;5052790;28;45530;-73
2022/02/15 13:41:30;;;;;;;;;56.75;39.50;;;;;22.24;44.07;101264.44;5048686;28;45808;-76
2022/02/15 13:44:00;;;;;;;;;51.75;39.00;;;;;22.28;44.14;101264.97;5052438;28;45443;-78
2022/02/15 13:46:27;;;;;;;;;57.50;41.00;;;;;22.33;43.73;101252.72;5058708;28;45261;-79
2022/02/15 13:48:54;;;;;;;;;57.50;42.50;;;;;22.36;43.48;101257.81;5047326;28;46511;-78
2022/02/15 13:51:20;;;;;;;;;56.25;43.50;;;;;22.39;44.04;101262.09;5052248;27;45532;-78
2022/02/15 13:53:45;;;;;;;;;52.00;40.50;;;;;22.36;43.65;101260.53;5054156;28;47150;-75
2022/02/15 13:56:11;;;;;;;;;69.00;50.00;;;;;22.37;43.03;101264.09;5062659;27;45405;-79
2022/02/15 13:58:36;;;;;;;;;76.50;59.25;;;;;22.29;42.63;101248.63;5052603;28;45514;-79
2022/02/15 14:01:01;;;;;;;;;72.50;56.75;;;;;22.23;42.83;101241.06;5054784;28;45505;-78
2022/02/15 14:03:27;;;;;;;;;69.75;52.50;;;;;22.18;43.28;101249.66;5049782;28;45347;-78
2022/02/15 14:05:52;;;;;;;;;70.50;53.25;;;;;22.12;42.73;101255.66;5047154;28;45636;-79
2022/02/15 14:08:17;;;;;;;;;75.50;53.75;;;;;22.05;42.59;101247.28;5060379;27;45432;-79
2022/02/15 14:10:43;;;;;;;;;75.00;55.50;;;;;21.96;42.54;101235.47;5065188;27;45523;-79
2022/02/15 14:13:08;;;;;;;;;71.25;52.50;;;;;21.95;42.99;101238.34;5039864;27;45273;-78
2022/02/15 14:15:34;;;;;;;;;70.25;52.50;;;;;21.91;42.72;101237.75;5041659;28;45509;-78
2022/02/15 14:18:00;;;;;;;;;62.00;47.00;;;;;21.87;42.61;101236.38;5052548;28;45624;-82
2022/02/15 14:20:27;;;;;;;;;74.50;55.25;;;;;21.84;42.06;101237.47;5048383;28;45481;-80
2022/02/15 14:22:53;;;;;;;;;72.00;52.75;;;;;21.80;41.99;101235.22;5054163;28;45540;-81
2022/02/15 14:25:19;;;;;;;;;66.75;51.75;;;;;21.80;42.39;101241.50;5068505;28;45542;-80
2022/02/15 14:27:45;;;;;;;;;75.50;55.25;;;;;21.77;42.21;101227.41;5050067;28;45470;-80
2022/02/15 14:30:14;;;;;;;;;67.25;50.00;;;;;21.73;42.85;101228.72;5049540;28;45557;-79
2022/02/15 14:32:41;;;;;;;;;64.50;49.25;;;;;21.73;42.31;101220.59;5049387;28;45424;-80
2022/02/15 14:35:07;;;;;;;;;66.00;49.00;;;;;21.68;42.77;101216.47;5049751;28;45316;-80
2022/02/15 14:37:34;;;;;;;;;70.50;51.00;;;;;21.67;43.00;101224.69;5062569;27;48451;-79
2022/02/15 14:40:00;;;;;;;;;67.25;51.25;;;;;21.66;43.31;101209.50;5041149;28;45561;-77
2022/02/15 14:42:25;;;;;;;;;68.00;48.75;;;;;21.70;42.69;101202.78;5040813;28;45461;-77
2022/02/15 14:44:50;;;;;;;;;69.50;51.25;;;;;21.76;43.34;101206.78;5043884;28;45468;-79
2022/02/15 14:47:16;;;;;;;;;70.50;50.75;;;;;21.78;43.42;101204.81;5048503;28;45456;-79
2022/02/15 14:49:41;;;;;;;;;65.75;51.25;;;;;21.85;43.44;101206.78;5036819;28;52539;-76
2022/02/15 14:52:09;;;;;;;;;63.50;48.00;;;;;21.90;43.11;101206.34;5049050;28;45518;-77
2022/02/15 14:54:35;;;;;;;;;65.50;50.25;;;;;21.91;43.30;101213.44;5042391;28;45610;-78
2022/02/15 14:57:00;;;;;;;;;68.00;49.50;;;;;21.97;43.64;101212.00;5050940;28;46418;-78
2022/02/15 14:59:26;;;;;;;;;62.25;48.75;;;;;21.97;43.29;101207.47;5040835;28;45481;-78
2022/02/15 15:01:51;;;;;;;;;59.75;47.00;;;;;22.05;43.29;101201.31;5052056;28;45942;-78
2022/02/15 15:04:17;;;;;;;;;59.50;45.75;;;;;22.11;43.43;101202.56;5048546;28;45782;-79
2022/02/15 15:06:42;;;;;;;;;63.50;48.00;;;;;22.15;43.62;101198.56;5050190;28;46115;-77
2022/02/15 15:09:08;;;;;;;;;57.50;45.75;;;;;22.17;43.50;101193.00;5049856;27;45399;-79
2022/02/15 15:11:34;;;;;;;;;63.00;46.75;;;;;22.17;43.80;101188.47;5049752;28;45531;-80
2022/02/15 15:13:59;;;;;;;;;64.75;49.25;;;;;22.15;43.45;101187.75;5044638;28;45507;-78
2022/02/15 15:16:24;;;;;;;;;74.00;59.00;;;;;22.19;42.49;101185.63;5052444;28;46346;-79
2022/02/15 15:18:53;;;;;;;;;81.50;68.50;;;;;22.17;42.33;101190.31;5054440;28;45858;-80
2022/02/15 15:21:22;;;;;;;;;72.25;57.75;;;;;22.11;42.02;101189.03;5047105;28;46638;-79
2022/02/15 15:23:49;;;;;;;;;72.25;53.75;;;;;22.02;41.75;101179.16;5052033;28;45544;-78
2022/02/15 15:26:15;;;;;;;;;76.00;58.75;;;;;21.94;41.79;101177.16;5052946;28;46118;-85
2022/02/15 15:28:40;;;;;;;;;53.25;37.00;;;;;21.86;41.05;101167.09;5069135;27;45330;-83
2022/02/15 15:31:06;;;;;;;;;37.25;32.00;;;;;21.80;40.41;101164.97;5049555;28;45402;-80
2022/02/15 15:33:32;;;;;;;;;57.75;43.25;;;;;21.74;40.86;101169.09;5042837;28;45478;-79
2022/02/15 15:35:57;;;;;;;;;89.75;71.50;;;;;21.69;41.60;101158.72;5042550;28;46106;-79
2022/02/15 15:38:22;;;;;;;;;105.50;83.25;;;;;21.64;41.48;101166.41;5055349;28;50296;-80
2022/02/15 15:40:48;;;;;;;;;78.25;57.50;;;;;21.60;41.05;101156.91;5051221;28;47795;-79
2022/02/15 15:43:13;;;;;;;;;58.75;45.25;;;;;21.54;41.43;101154.78;5050054;28;45317;-81
2022/02/15 15:45:38;;;;;;;;;45.25;34.50;;;;;21.48;41.06;101144.53;5040926;28;46183;-80
2022/02/15 15:48:05;;;;;;;;;48.25;37.50;;;;;21.42;40.82;101148.69;5039614;28;45595;-80
2022/02/15 15:50:30;;;;;;;;;45.75;36.50;;;;;21.38;41.33;101160.78;5039170;28;45557;-77
2022/02/15 15:52:55;;;;;;;;;57.75;43.00;;;;;21.33;42.10;101150.38;5052411;28;45746;-85
2022/02/15 15:55:21;;;;;;;;;59.25;46.00;;;;;21.35;42.17;101136.75;5049681;28;46285;-82
2022/02/15 15:57:46;;;;;;;;;61.75;48.25;;;;;21.34;42.64;101144.00;5049233;28;45463;-84
2022/02/15 16:00:12;;;;;;;;;56.00;44.00;;;;;21.31;43.12;101138.88;5051989;28;45558;-81
2022/02/15 16:02:37;;;;;;;;;56.75;43.50;;;;;21.28;42.89;101131.94;5048361;28;45826;-82
2022/02/15 16:05:03;;;;;;;;;54.00;42.50;;;;;21.29;43.35;101124.69;5053017;28;46115;-82
2022/02/15 16:07:28;;;;;;;;;59.75;44.00;;;;;21.27;42.90;101126.66;5053257;27;45494;-82
2022/02/15 16:09:54;;;;;;;;;53.50;42.50;;;;;21.24;42.79;101108.06;5058107;28;45408;-83
2022/02/15 16:12:19;;;;;;;;;53.25;40.25;;;;;21.26;43.63;101111.47;5054618;28;45488;-84
2022/02/15 16:14:44;;;;;;;;;52.25;38.75;;;;;21.25;43.39;101104.38;5048321;28;45539;-84
2022/02/15 16:17:10;;;;;;;;;52.00;37.50;;;;;21.23;42.90;101104.53;5055429;28;45481;-82
2022/02/15 16:19:37;;;;;;;;;54.00;40.00;;;;;21.25;43.00;101107.91;5059078;27;45525;-84
2022/02/15 16:22:03;;;;;;;;;52.25;40.50;;;;;21.24;43.14;101091.84;5047471;28;45601;-84
2022/02/15 16:24:29;;;;;;;;;47.75;39.00;;;;;21.25;43.44;101101.69;5048401;28;48302;-83
2022/02/15 16:26:57;;;;;;;;;51.75;40.00;;;;;21.24;43.74;101095.41;5053155;28;45546;-83
2022/02/15 16:29:23;;;;;;;;;48.00;37.50;;;;;21.27;43.12;101091.56;5057418;28;49912;-84
2022/02/15 16:31:53;;;;;;;;;50.00;37.50;;;;;21.29;43.55;101081.50;5055369;28;45568;-75
2022/02/15 16:34:19;;;;;;;;;40.25;33.25;;;;;21.35;42.86;101097.13;5051709;28;46146;-75
2022/02/15 16:36:45;;;;;;;;;34.75;30.50;;;;;21.33;42.47;101085.59;5050468;28;45461;-80
2022/02/15 16:39:12;;;;;;;;;45.00;35.00;;;;;21.35;43.19;101083.63;5051854;28;45634;-78
2022/02/15 16:41:40;;;;;;;;;49.50;37.25;;;;;21.36;43.34;101079.03;5056140;28;45903;-79
2022/02/15 16:44:09;;;;;;;;;49.25;38.75;;;;;21.31;43.12;101074.09;5063406;28;47343;-77
2022/02/15 16:46:35;;;;;;;;;46.75;37.75;;;;;21.32;43.11;101084.75;5056710;28;45328;-82
2022/02/15 16:49:00;;;;;;;;;28.25;23.75;;;;;21.34;42.42;101071.13;5041502;28;45494;-76
2022/02/15 16:51:27;;;;;;;;;18.00;15.25;;;;;21.32;41.86;101075.78;5050671;28;45656;-77
2022/02/15 16:53:53;;;;;;;;;16.33;11.67;;;;;21.32;41.25;101076.66;5041533;28;46351;-78
2022/02/15 16:56:18;;;;;;;;;24.75;20.00;;;;;21.29;41.93;101066.13;5042666;28;49966;-79
2022/02/15 16:58:43;;;;;;;;;31.50;25.00;;;;;21.26;41.93;101063.72;5042408;28;45487;-80
2022/02/15 17:01:09;;;;;;;;;27.00;26.75;;;;;21.26;41.93;101073.69;5047479;28;45498;-80
2022/02/15 17:03:35;;;;;;;;;34.25;30.00;;;;;21.24;42.55;101067.56;5047644;28;45538;-81
2022/02/15 17:06:01;;;;;;;;;35.75;26.50;;;;;21.21;42.49;101070.56;5043924;28;45593;-80
2022/02/15 17:08:26;;;;;;;;;35.25;31.75;;;;;21.18;42.93;101060.91;5045524;28;45462;-82
2022/02/15 17:10:53;;;;;;;;;40.50;32.25;;;;;21.18;43.20;101060.91;5050194;28;45643;-80
2022/02/15 17:13:18;;;;;;;;;32.75;29.50;;;;;21.14;43.31;101052.22;5052389;27;48529;-82
2022/02/15 17:15:44;;;;;;;;;31.25;29.50;;;;;21.16;42.96;101050.25;5043044;28;45643;-87
2022/02/15 17:18:10;;;;;;;;;39.00;31.00;;;;;21.17;43.39;101053.81;5048365;28;45545;-85
2022/02/15 17:20:36;;;;;;;;;39.75;31.25;;;;;21.20;43.46;101056.22;5041297;28;45767;-87
2022/02/15 17:23:02;;;;;;;;;34.50;30.50;;;;;21.24;43.39;101048.66;5044478;28;46376;-84
2022/02/15 17:25:28;;;;;;;;;41.50;32.25;;;;;21.27;43.33;101051.09;5050412;28;45457;-81
2022/02/15 17:27:53;;;;;;;;;38.00;32.00;;;;;21.31;43.64;101049.81;5040688;28;45724;-88
2022/02/15 17:30:20;;;;;;;;;38.00;34.00;;;;;21.39;42.84;101049.06;5040948;28;46158;-82
2022/02/15 17:32:45;;;;;;;;;35.50;30.50;;;;;21.49;42.82;101055.28;5044941;28;45637;-78
2022/02/15 17:35:11;;;;;;;;;40.00;30.25;;;;;21.57;43.54;101041.91;5046417;28;45564;-79
2022/02/15 17:37:36;;;;;;;;;46.00;32.00;;;;;21.72;42.99;101044.16;5045158;28;45482;-79
2022/02/15 17:40:04;;;;;;;;;37.50;31.00;;;;;21.83;42.88;101035.84;5042243;28;45554;-78
2022/02/15 17:42:29;;;;;;;;;37.50;31.75;;;;;21.95;43.02;101031.06;5044503;28;46246;-78
2022/02/15 17:44:55;;;;;;;;;35.00;31.00;;;;;22.09;43.53;101045.94;5045256;28;45506;-80
2022/02/15 17:47:22;;;;;;;;;36.50;31.50;;;;;22.22;43.45;101042.00;5043516;28;45999;-81
2022/02/15 17:49:49;;;;;;;;;34.75;29.00;;;;;22.31;42.89;101037.56;5048985;28;45507;-81
2022/02/15 17:52:15;;;;;;;;;37.50;30.00;;;;;22.43;42.88;101044.44;5039516;28;45815;-80
2022/02/15 17:54:40;;;;;;;;;34.50;28.75;;;;;22.50;43.12;101042.81;5047151;28;45446;-80
2022/02/15 17:57:05;;;;;;;;;35.25;29.75;;;;;22.56;42.96;101037.81;5044387;28;45520;-82
2022/02/15 17:59:31;;;;;;;;;38.75;29.50;;;;;22.68;43.22;101046.56;5039988;28;53429;-81
2022/02/15 18:01:59;;;;;;;;;31.50;27.00;;;;;22.71;43.35;101027.28;5059357;27;46628;-77
2022/02/15 18:04:26;;;;;;;;;34.00;28.25;;;;;22.78;43.08;101022.97;5041959;28;45701;-78
2022/02/15 18:06:51;;;;;;;;;32.75;25.50;;;;;22.84;43.06;101030.44;5050719;28;45906;-77
2022/02/15 18:09:18;;;;;;;;;31.75;29.50;;;;;22.89;43.25;101028.13;5045736;28;47979;-81
2022/02/15 18:11:45;;;;;;;;;36.00;29.75;;;;;22.94;43.47;101037.63;5046308;28;46309;-79
2022/02/15 18:14:10;;;;;;;;;31.50;25.50;;;;;22.93;43.19;101027.81;5048849;28;45748;-80
2022/02/15 18:16:36;;;;;;;;;28.25;26.25;;;;;23.03;43.29;101034.84;5037311;28;45476;-78
2022/02/15 18:19:01;;;;;;;;;28.50;28.25;;;;;23.06;43.25;101039.06;5044353;28;45458;-78
2022/02/15 18:21:27;;;;;;;;;31.00;29.25;;;;;23.08;43.23;101033.47;5042903;28;46438;-76
2022/02/15 18:23:52;;;;;;;;;31.00;25.75;;;;;23.12;43.55;101032.16;5036239;28;45484;-76
2022/02/15 18:26:17;;;;;;;;;25.75;25.50;;;;;23.14;43.39;101030.16;5039779;28;45498;-76
2022/02/15 18:28:45;;;;;;;;;29.25;25.75;;;;;23.18;43.03;101036.97;5039220;28;46158;-76
2022/02/15 18:31:11;;;;;;;;;26.50;23.50;;;;;23.20;43.64;101028.66;5046537;28;45845;-75
2022/02/15 18:33:38;;;;;;;;;26.75;23.75;;;;;23.23;43.43;101022.94;5042987;28;45399;-75
2022/02/15 18:36:05;;;;;;;;;24.00;22.00;;;;;23.24;43.39;101019.22;5042080;28;45647;-76
